Time;durP1;ratioP1;P1;durP2;ratioP2;P2;SDS_P1;SDS_P2;PMS_P1;PMS_P2;Temp;Humidity;BMP_temperature;BMP_pressure;BME280_temperature;BME280_humidity;BME280_pressure;Samples;Min_cycle;Max_cycle;Signal;HPM_P1;HPM_P2
2021/12/07 00:00:33;;;;;;;;;8.00;3.00;;;;;;;;5054162;28;45315;-67
2021/12/07 00:02:59;;;;;;;;;2.00;2.00;;;;;;;;5045534;28;45504;-67
2021/12/07 00:05:24;;;;;;;;;8.00;4.33;;;;;;;;5050383;28;45529;-67
2021/12/07 00:07:49;;;;;;;;;2.67;2.67;;;;;;;;5045400;28;45353;-67
2021/12/07 00:10:15;;;;;;;;;6.00;2.33;;;;;;;;5056995;28;45301;-67
2021/12/07 00:12:43;;;;;;;;;6.00;1.67;;;;;;;;5042819;28;46599;-67
2021/12/07 00:15:09;;;;;;;;;4.33;3.67;;;;;;;;5042416;28;45357;-67
2021/12/07 00:17:35;;;;;;;;;3.00;3.00;;;;;;;;5048765;28;45361;-66
2021/12/07 00:20:01;;;;;;;;;2.00;2.00;;;;;;;;5042286;28;45379;-67
2021/12/07 00:22:26;;;;;;;;;5.33;2.33;;;;;;;;5042660;28;46272;-67
2021/12/07 00:24:52;;;;;;;;;5.00;2.33;;;;;;;;5040605;28;45243;-67
2021/12/07 00:27:17;;;;;;;;;2.33;0.33;;;;;;;;5042922;28;45367;-67
2021/12/07 00:29:42;;;;;;;;;5.00;3.00;;;;;;;;5042332;28;45407;-67
2021/12/07 00:32:22;;;;;;;;;2.67;2.67;;;;;;;;5042769;28;45468;-66
2021/12/07 00:37:23;;;;;;;;;10.00;2.33;;;;;;;;5043769;28;45385;-66
2021/12/07 00:39:48;;;;;;;;;3.00;3.00;;;;;;;;5062316;28;45526;-67
2021/12/07 00:42:13;;;;;;;;;3.00;2.33;;;;;;;;5048450;28;45474;-66
2021/12/07 00:44:38;;;;;;;;;2.00;2.00;;;;;;;;5046188;28;45318;-67
2021/12/07 00:47:04;;;;;;;;;3.00;2.00;;;;;;;;5049394;28;45322;-66
2021/12/07 00:49:29;;;;;;;;;5.67;1.33;;;;;;;;5046779;28;45203;-66
2021/12/07 00:51:54;;;;;;;;;4.33;1.00;;;;;;;;5045684;28;46089;-66
2021/12/07 00:54:20;;;;;;;;;2.33;1.00;;;;;;;;5044727;28;45721;-66
2021/12/07 00:56:45;;;;;;;;;4.33;2.00;;;;;;;;5046462;28;45393;-66
2021/12/07 00:59:10;;;;;;;;;3.00;2.00;;;;;;;;5054951;28;45509;-67
2021/12/07 01:01:36;;;;;;;;;10.00;2.00;;;;;;;;5051149;28;46113;-66
2021/12/07 01:04:01;;;;;;;;;5.67;2.00;;;;;;;;5055378;28;45475;-67
2021/12/07 01:06:46;;;;;;;;;1.00;1.00;;;;;;;;5046488;28;45291;-66
2021/12/07 01:09:21;;;;;;;;;4.00;2.00;;;;;;;;5057233;28;45387;-66
2021/12/07 01:25:34;;;;;;;;;4.33;3.00;;;;;;;;5058312;28;45357;-66
2021/12/07 01:28:06;;;;;;;;;0.00;0.00;;;;;;;;5043932;28;45452;-66
2021/12/07 01:30:50;;;;;;;;;2.00;1.00;;;;;;;;5045274;28;45247;-66
2021/12/07 01:36:05;;;;;;;;;4.33;3.00;;;;;;;;5058160;28;45436;-66
2021/12/07 01:59:54;;;;;;;;;1.00;0.00;;;;;;;;5056846;28;45393;-67
2021/12/07 02:02:20;;;;;;;;;2.33;0.67;;;;;;;;5048870;28;45311;-67
2021/12/07 02:04:46;;;;;;;;;1.00;1.00;;;;;;;;5052359;28;45696;-67
2021/12/07 02:07:11;;;;;;;;;2.33;0.67;;;;;;;;5048837;28;45350;-68
2021/12/07 02:09:39;;;;;;;;;0.33;0.33;;;;;;;;5058541;28;45474;-67
2021/12/07 02:12:06;;;;;;;;;2.00;1.33;;;;;;;;5043866;28;45674;-67
2021/12/07 02:14:32;;;;;;;;;0.00;0.00;;;;;;;;5058168;28;45601;-67
2021/12/07 02:16:58;;;;;;;;;0.00;0.00;;;;;;;;5045520;28;45335;-67
2021/12/07 02:19:24;;;;;;;;;1.67;1.67;;;;;;;;5044571;28;45361;-67
2021/12/07 02:21:49;;;;;;;;;1.00;1.00;;;;;;;;5044496;28;45342;-67
2021/12/07 02:24:15;;;;;;;;;2.33;1.00;;;;;;;;5044667;28;46108;-67
2021/12/07 02:26:40;;;;;;;;;1.00;1.00;;;;;;;;5043901;28;45489;-67
2021/12/07 02:29:06;;;;;;;;;2.33;1.67;;;;;;;;5044922;28;45298;-67
2021/12/07 02:31:32;;;;;;;;;0.00;0.00;;;;;;;;5044633;28;45362;-67
2021/12/07 02:33:57;;;;;;;;;6.33;2.00;;;;;;;;5043093;28;48146;-67
2021/12/07 02:36:23;;;;;;;;;2.67;0.67;;;;;;;;5049620;28;45224;-67
2021/12/07 02:38:48;;;;;;;;;3.00;1.00;;;;;;;;5061254;28;45336;-67
2021/12/07 02:41:14;;;;;;;;;0.67;0.67;;;;;;;;5053973;28;45496;-67
2021/12/07 02:43:39;;;;;;;;;4.33;1.00;;;;;;;;5044535;28;46163;-67
2021/12/07 02:46:04;;;;;;;;;0.00;0.00;;;;;;;;5046601;28;45247;-67
2021/12/07 02:48:29;;;;;;;;;2.00;0.67;;;;;;;;5044399;28;45303;-67
2021/12/07 02:50:55;;;;;;;;;3.00;0.00;;;;;;;;5048430;28;45297;-67
2021/12/07 02:53:22;;;;;;;;;0.33;0.33;;;;;;;;5043116;28;47867;-67
2021/12/07 02:55:51;;;;;;;;;2.00;0.00;;;;;;;;5032638;28;45315;-67
2021/12/07 02:58:17;;;;;;;;;0.00;0.00;;;;;;;;5038003;28;45323;-67
2021/12/07 03:00:50;;;;;;;;;0.00;0.00;;;;;;;;5045133;28;45477;-67
2021/12/07 03:03:16;;;;;;;;;2.00;0.00;;;;;;;;5037177;28;47278;-68
2021/12/07 03:05:48;;;;;;;;;1.33;0.00;;;;;;;;5043416;28;45453;-68
2021/12/07 03:27:22;;;;;;;;;2.00;1.67;;;;;;;;5070746;28;45448;-65
2021/12/07 03:29:48;;;;;;;;;4.33;2.00;;;;;;;;5077926;28;45560;-65
2021/12/07 03:32:13;;;;;;;;;1.33;1.33;;;;;;;;5063254;28;45483;-65
2021/12/07 03:34:39;;;;;;;;;2.00;2.00;;;;;;;;5078396;28;45510;-65
2021/12/07 03:37:04;;;;;;;;;5.00;2.67;;;;;;;;5064535;28;45276;-66
2021/12/07 03:39:29;;;;;;;;;1.67;1.67;;;;;;;;5078875;28;45286;-66
2021/12/07 03:41:55;;;;;;;;;3.00;1.00;;;;;;;;5067262;28;45550;-67
2021/12/07 03:44:20;;;;;;;;;3.00;3.00;;;;;;;;5078336;28;46632;-66
2021/12/07 03:46:45;;;;;;;;;3.67;2.00;;;;;;;;5068980;28;45325;-66
2021/12/07 03:49:11;;;;;;;;;0.33;0.33;;;;;;;;5076503;28;45458;-66
2021/12/07 03:51:36;;;;;;;;;3.00;1.33;;;;;;;;5067096;28;45603;-65
2021/12/07 03:54:01;;;;;;;;;4.33;1.00;;;;;;;;5059995;28;45315;-66
2021/12/07 03:56:27;;;;;;;;;0.00;0.00;;;;;;;;5064984;28;45279;-66
2021/12/07 03:58:52;;;;;;;;;1.33;1.33;;;;;;;;5067043;28;45288;-65
2021/12/07 04:01:17;;;;;;;;;1.67;1.67;;;;;;;;5071937;27;45339;-68
2021/12/07 04:03:43;;;;;;;;;2.00;2.00;;;;;;;;5067222;28;45921;-65
2021/12/07 04:06:08;;;;;;;;;4.00;1.00;;;;;;;;5076751;28;45337;-66
2021/12/07 04:08:35;;;;;;;;;4.00;2.00;;;;;;;;5070466;28;45164;-65
2021/12/07 04:11:01;;;;;;;;;1.67;1.00;;;;;;;;5073200;27;45368;-65
2021/12/07 04:13:26;;;;;;;;;2.00;2.00;;;;;;;;5071029;28;48411;-65
2021/12/07 04:15:52;;;;;;;;;1.33;1.00;;;;;;;;5072669;27;45408;-65
2021/12/07 04:18:17;;;;;;;;;1.67;1.00;;;;;;;;5075026;28;45424;-66
2021/12/07 04:20:42;;;;;;;;;1.67;1.67;;;;;;;;5074094;28;45350;-66
2021/12/07 04:23:08;;;;;;;;;2.00;0.33;;;;;;;;5079759;27;45471;-66
2021/12/07 04:25:33;;;;;;;;;1.00;1.00;;;;;;;;5096363;27;45356;-66
2021/12/07 04:27:58;;;;;;;;;1.00;1.00;;;;;;;;5080890;27;45408;-66
2021/12/07 04:30:26;;;;;;;;;10.00;1.67;;;;;;;;5097169;27;45545;-66
2021/12/07 04:32:51;;;;;;;;;2.00;0.00;;;;;;;;5083670;27;45400;-66
2021/12/07 04:35:17;;;;;;;;;1.00;1.00;;;;;;;;5087450;27;45535;-66
2021/12/07 04:37:42;;;;;;;;;0.00;0.00;;;;;;;;5071684;28;45447;-66
2021/12/07 04:40:09;;;;;;;;;0.00;0.00;;;;;;;;5082849;28;45176;-66
2021/12/07 04:42:35;;;;;;;;;0.00;0.00;;;;;;;;5055659;28;49349;-66
2021/12/07 04:45:05;;;;;;;;;0.00;0.00;;;;;;;;5065368;28;45372;-66
2021/12/07 04:47:50;;;;;;;;;1.00;1.00;;;;;;;;5056294;28;45358;-66
2021/12/07 04:57:36;;;;;;;;;5.00;1.00;;;;;;;;5065645;28;45385;-66
2021/12/07 04:58:29;;;;;;;;;1.00;0.67;;;;;;;;5080733;28;45512;-66
2021/12/07 05:00:54;;;;;;;;;2.00;2.00;;;;;;;;5080813;28;45589;-66
2021/12/07 05:03:20;;;;;;;;;1.00;1.00;;;;;;;;5069828;28;46631;-66
2021/12/07 05:05:49;;;;;;;;;5.00;2.67;;;;;;;;5066160;28;45655;-66
2021/12/07 05:08:21;;;;;;;;;1.00;1.00;;;;;;;;5062869;28;45358;-65
2021/12/07 05:18:33;;;;;;;;;4.33;1.00;;;;;;;;5080866;28;45358;-66
2021/12/07 05:24:02;;;;;;;;;3.67;1.00;;;;;;;;5021824;28;46134;-66
2021/12/07 05:39:54;;;;;;;;;2.00;2.00;;;;;;;;5083813;28;45310;-66
2021/12/07 05:42:23;;;;;;;;;4.33;2.00;;;;;;;;5073305;28;45589;-66
2021/12/07 05:44:50;;;;;;;;;6.67;2.00;;;;;;;;5083603;28;45334;-66
2021/12/07 05:47:15;;;;;;;;;1.00;1.00;;;;;;;;5065815;28;45393;-66
2021/12/07 05:49:41;;;;;;;;;2.00;2.00;;;;;;;;5055315;28;45414;-66
2021/12/07 05:52:06;;;;;;;;;3.00;3.00;;;;;;;;5068972;28;46332;-66
2021/12/07 05:54:31;;;;;;;;;3.00;1.67;;;;;;;;5045959;28;48338;-66
2021/12/07 05:56:57;;;;;;;;;5.33;3.00;;;;;;;;5060205;28;45346;-66
2021/12/07 05:59:22;;;;;;;;;2.00;2.00;;;;;;;;5073473;28;45526;-66
2021/12/07 06:01:47;;;;;;;;;4.33;4.33;;;;;;;;5074520;28;45338;-66
2021/12/07 06:04:13;;;;;;;;;6.00;5.00;;;;;;;;5055309;28;47202;-66
2021/12/07 06:06:39;;;;;;;;;6.00;6.00;;;;;;;;5063967;28;45321;-66
2021/12/07 06:09:04;;;;;;;;;5.33;5.33;;;;;;;;5083772;28;45404;-66
2021/12/07 06:11:30;;;;;;;;;7.00;2.00;;;;;;;;5077056;28;45417;-66
2021/12/07 06:13:55;;;;;;;;;5.00;5.00;;;;;;;;5057259;28;46399;-67
2021/12/07 06:16:20;;;;;;;;;17.00;9.00;;;;;;;;5076689;28;45464;-65
2021/12/07 06:18:46;;;;;;;;;5.33;5.33;;;;;;;;5080729;28;45247;-66
2021/12/07 06:21:12;;;;;;;;;5.67;5.67;;;;;;;;5076988;28;45535;-66
2021/12/07 06:23:37;;;;;;;;;2.00;2.00;;;;;;;;5056199;28;47167;-66
2021/12/07 06:26:03;;;;;;;;;4.33;3.00;;;;;;;;5054306;28;45377;-66
2021/12/07 06:28:29;;;;;;;;;7.00;6.00;;;;;;;;5052013;28;45452;-66
2021/12/07 06:30:54;;;;;;;;;5.67;5.00;;;;;;;;5057091;28;45517;-66
2021/12/07 06:33:20;;;;;;;;;3.00;3.00;;;;;;;;5050159;28;46646;-66
2021/12/07 06:35:47;;;;;;;;;3.00;3.00;;;;;;;;5058629;28;45470;-67
2021/12/07 06:38:12;;;;;;;;;5.33;5.00;;;;;;;;5051665;28;45323;-67
2021/12/07 06:40:38;;;;;;;;;6.00;5.33;;;;;;;;5059168;28;45188;-67
2021/12/07 06:43:03;;;;;;;;;5.67;5.00;;;;;;;;5052023;28;48155;-67
2021/12/07 06:45:29;;;;;;;;;4.33;4.33;;;;;;;;5058493;28;45163;-67
2021/12/07 06:47:55;;;;;;;;;9.00;2.67;;;;;;;;5050192;28;45469;-66
2021/12/07 06:50:20;;;;;;;;;11.00;7.00;;;;;;;;5060103;28;45577;-66
2021/12/07 06:52:45;;;;;;;;;5.67;5.00;;;;;;;;5042220;28;45391;-66
2021/12/07 06:55:11;;;;;;;;;6.00;6.00;;;;;;;;5041877;28;45251;-66
2021/12/07 06:57:36;;;;;;;;;8.00;6.67;;;;;;;;5050012;28;45227;-66
2021/12/07 07:00:04;;;;;;;;;9.00;7.00;;;;;;;;5055077;28;45398;-65
2021/12/07 07:02:29;;;;;;;;;5.00;5.00;;;;;;;;5048260;28;47544;-65
2021/12/07 07:04:54;;;;;;;;;10.00;6.00;;;;;;;;5055548;28;45493;-68
2021/12/07 07:07:22;;;;;;;;;7.00;7.00;;;;;;;;5052299;28;45655;-66
2021/12/07 07:09:47;;;;;;;;;5.67;3.00;;;;;;;;5056682;28;45510;-66
2021/12/07 07:12:12;;;;;;;;;10.00;7.67;;;;;;;;5052077;28;45136;-68
2021/12/07 07:14:38;;;;;;;;;11.67;8.33;;;;;;;;5055868;28;45456;-67
2021/12/07 07:17:03;;;;;;;;;12.33;9.33;;;;;;;;5054365;28;45364;-66
2021/12/07 07:19:28;;;;;;;;;9.00;9.00;;;;;;;;5059964;28;45548;-66
2021/12/07 07:21:53;;;;;;;;;11.67;6.00;;;;;;;;5054546;28;46293;-66
2021/12/07 07:24:19;;;;;;;;;9.33;8.67;;;;;;;;5073341;28;45323;-66
2021/12/07 07:26:44;;;;;;;;;9.00;8.67;;;;;;;;5067987;28;45454;-67
2021/12/07 07:29:09;;;;;;;;;13.00;9.33;;;;;;;;5075846;28;45228;-67
2021/12/07 07:31:36;;;;;;;;;11.67;10.67;;;;;;;;5069982;28;46151;-67
2021/12/07 07:34:02;;;;;;;;;7.67;7.67;;;;;;;;5074957;28;45395;-67
2021/12/07 07:36:27;;;;;;;;;13.00;13.00;;;;;;;;5073249;28;45298;-67
2021/12/07 07:38:52;;;;;;;;;21.33;15.00;;;;;;;;5076762;28;45278;-66
2021/12/07 07:41:17;;;;;;;;;11.00;11.00;;;;;;;;5071845;28;46032;-67
2021/12/07 07:43:43;;;;;;;;;19.00;15.00;;;;;;;;5044259;28;45350;-66
2021/12/07 07:46:08;;;;;;;;;15.67;14.00;;;;;;;;5072804;28;45481;-66
2021/12/07 07:48:33;;;;;;;;;13.67;13.00;;;;;;;;5045250;28;45434;-66
2021/12/07 07:50:58;;;;;;;;;14.33;10.67;;;;;;;;5073992;28;45626;-66
2021/12/07 07:53:24;;;;;;;;;16.67;14.33;;;;;;;;5069218;28;45386;-69
2021/12/07 07:55:49;;;;;;;;;19.00;15.00;;;;;;;;5061506;28;45374;-68
2021/12/07 07:58:15;;;;;;;;;32.00;27.50;;;;;;;;5070718;28;45318;-66
2021/12/07 08:00:42;;;;;;;;;19.00;11.00;;;;;;;;5061638;28;47087;-66
2021/12/07 08:03:07;;;;;;;;;21.33;19.67;;;;;;;;5066562;28;45426;-66
2021/12/07 08:05:32;;;;;;;;;23.00;20.67;;;;;;;;5077769;28;45638;-71
2021/12/07 08:07:58;;;;;;;;;20.00;20.00;;;;;;;;5070706;28;45256;-66
2021/12/07 08:10:28;;;;;;;;;32.00;23.00;;;;;;;;5081482;28;45343;-66
2021/12/07 08:12:55;;;;;;;;;26.67;22.67;;;;;;;;5056807;28;45325;-67
2021/12/07 08:15:20;;;;;;;;;36.25;26.50;;;;;;;;5083521;28;45267;-65
2021/12/07 08:17:45;;;;;;;;;33.67;25.67;;;;;;;;5059869;28;45587;-67
2021/12/07 08:20:10;;;;;;;;;39.25;24.75;;;;;;;;5064459;28;47238;-68
2021/12/07 08:22:36;;;;;;;;;23.67;21.67;;;;;;;;5075108;28;45226;-66
2021/12/07 08:25:01;;;;;;;;;18.67;16.67;;;;;;;;5061697;28;46062;-66
2021/12/07 08:27:27;;;;;;;;;30.25;24.75;;;;;;;;5069006;28;45440;-66
2021/12/07 08:29:52;;;;;;;;;36.75;31.50;;;;;;;;5084296;28;45341;-66
2021/12/07 08:32:17;;;;;;;;;29.25;23.00;;;;;;;;5069243;28;45380;-66
2021/12/07 08:34:42;;;;;;;;;29.67;24.67;;;;;;;;5065996;28;45214;-66
2021/12/07 08:37:08;;;;;;;;;31.00;26.00;;;;;;;;5055039;28;45387;-66
2021/12/07 08:39:34;;;;;;;;;31.00;26.25;;;;;;;;5066351;28;46034;-66
2021/12/07 08:42:00;;;;;;;;;27.50;21.00;;;;;;;;5068620;28;45765;-66
2021/12/07 08:44:26;;;;;;;;;36.25;21.75;;;;;;;;5084363;28;45322;-66
2021/12/07 08:46:51;;;;;;;;;28.33;23.67;;;;;;;;5058141;28;45474;-66
2021/12/07 08:49:16;;;;;;;;;31.00;23.00;;;;;;;;5071282;28;46127;-66
2021/12/07 08:51:42;;;;;;;;;29.33;26.67;;;;;;;;5075428;28;45505;-66
2021/12/07 08:54:26;;;;;;;;;27.25;25.25;;;;;;;;5066651;28;45247;-66
2021/12/07 08:59:40;;;;;;;;;23.00;20.00;;;;;;;;5074797;28;45865;-66
2021/12/07 09:02:05;;;;;;;;;35.75;26.25;;;;;;;;5073730;28;45431;-66
2021/12/07 09:04:30;;;;;;;;;41.25;33.75;;;;;;;;5057324;28;45254;-67
2021/12/07 09:06:55;;;;;;;;;32.75;25.50;;;;;;;;5078317;28;45447;-66
2021/12/07 09:09:21;;;;;;;;;32.00;26.50;;;;;;;;5057511;28;48258;-66
2021/12/07 09:11:46;;;;;;;;;35.25;28.25;;;;;;;;5077952;28;45295;-66
2021/12/07 09:14:14;;;;;;;;;37.75;33.75;;;;;;;;5077436;28;45287;-66
2021/12/07 09:16:40;;;;;;;;;34.00;26.50;;;;;;;;5078071;28;45361;-66
2021/12/07 09:19:05;;;;;;;;;24.00;21.25;;;;;;;;5078041;28;46064;-66
2021/12/07 09:21:30;;;;;;;;;43.75;29.50;;;;;;;;5057573;28;45450;-65
2021/12/07 09:23:56;;;;;;;;;35.00;26.50;;;;;;;;5079414;28;45488;-65
2021/12/07 09:26:21;;;;;;;;;22.33;18.00;;;;;;;;5062042;28;45544;-66
2021/12/07 09:28:46;;;;;;;;;24.33;19.00;;;;;;;;5075431;28;46518;-68
2021/12/07 09:31:12;;;;;;;;;33.67;28.67;;;;;;;;5062698;28;45765;-66
2021/12/07 09:33:37;;;;;;;;;32.00;23.00;;;;;;;;5074814;28;45311;-66
2021/12/07 09:36:03;;;;;;;;;26.67;25.00;;;;;;;;5078978;28;45546;-66
2021/12/07 09:38:28;;;;;;;;;26.00;18.00;;;;;;;;5075394;28;45451;-66
2021/12/07 09:40:54;;;;;;;;;15.50;14.00;;;;;;;;5077653;28;45461;-66
2021/12/07 09:43:20;;;;;;;;;35.00;30.50;;;;;;;;5064058;28;45275;-66
2021/12/07 09:45:45;;;;;;;;;20.00;19.33;;;;;;;;5059202;28;45480;-66
2021/12/07 09:48:11;;;;;;;;;24.00;20.50;;;;;;;;5064757;28;46723;-66
2021/12/07 09:50:38;;;;;;;;;24.00;23.00;;;;;;;;5075851;28;45274;-66
2021/12/07 09:53:06;;;;;;;;;22.33;18.00;;;;;;;;5073027;28;45287;-66
2021/12/07 09:55:32;;;;;;;;;23.33;17.33;;;;;;;;5065374;28;45456;-66
2021/12/07 09:57:57;;;;;;;;;22.00;20.33;;;;;;;;5072601;28;46294;-67
2021/12/07 10:00:25;;;;;;;;;13.33;11.33;;;;;;;;5077039;28;45305;-66
2021/12/07 10:02:50;;;;;;;;;20.33;16.00;;;;;;;;5072482;28;45416;-67
2021/12/07 10:05:18;;;;;;;;;16.33;14.67;;;;;;;;5079536;28;45401;-66
2021/12/07 10:07:45;;;;;;;;;16.67;14.33;;;;;;;;5073199;28;45431;-66
2021/12/07 10:10:20;;;;;;;;;27.00;20.67;;;;;;;;5079319;28;45468;-67
2021/12/07 10:12:45;;;;;;;;;21.00;18.33;;;;;;;;5072770;28;45357;-66
2021/12/07 10:15:11;;;;;;;;;17.33;12.33;;;;;;;;5081285;28;45235;-66
2021/12/07 10:17:42;;;;;;;;;19.00;18.00;;;;;;;;5076183;28;45620;-67
2021/12/07 10:20:36;;;;;;;;;18.00;15.00;;;;;;;;5081425;28;45345;-67
2021/12/07 10:23:05;;;;;;;;;20.00;19.00;;;;;;;;5074864;28;45425;-67
2021/12/07 10:25:30;;;;;;;;;19.00;15.33;;;;;;;;5080515;28;45376;-67
2021/12/07 10:27:57;;;;;;;;;17.33;15.00;;;;;;;;5067758;28;45413;-67
2021/12/07 10:30:23;;;;;;;;;18.67;17.33;;;;;;;;5081049;27;45544;-67
2021/12/07 10:32:59;;;;;;;;;24.67;23.33;;;;;;;;5052375;28;45359;-67
2021/12/07 10:35:27;;;;;;;;;24.00;18.67;;;;;;;;5062581;28;45446;-69
2021/12/07 10:38:13;;;;;;;;;23.33;18.00;;;;;;;;5053827;28;48320;-68
2021/12/07 10:40:57;;;;;;;;;18.67;16.67;;;;;;;;5079718;28;45395;-68
2021/12/07 10:43:40;;;;;;;;;15.33;14.00;;;;;;;;5074275;28;45464;-70
2021/12/07 10:46:24;;;;;;;;;19.67;18.33;;;;;;;;5075296;28;45411;-67
2021/12/07 10:48:49;;;;;;;;;22.50;20.00;;;;;;;;5064566;28;45274;-67
2021/12/07 10:51:15;;;;;;;;;20.00;18.33;;;;;;;;5073932;28;45398;-68
2021/12/07 10:53:50;;;;;;;;;22.00;19.00;;;;;;;;5064320;28;45310;-67
2021/12/07 10:56:32;;;;;;;;;24.33;20.67;;;;;;;;5067378;28;45958;-67
2021/12/07 10:59:02;;;;;;;;;24.00;16.00;;;;;;;;5053912;28;48308;-68
2021/12/07 11:01:36;;;;;;;;;30.33;21.00;;;;;;;;5057979;28;45350;-68
2021/12/07 11:04:20;;;;;;;;;22.33;20.67;;;;;;;;5057654;28;45728;-68
2021/12/07 11:07:04;;;;;;;;;25.33;21.67;;;;;;;;5069349;28;45323;-68
2021/12/07 11:09:29;;;;;;;;;28.75;25.50;;;;;;;;5057668;28;47117;-67
2021/12/07 11:12:11;;;;;;;;;26.33;20.67;;;;;;;;5075925;28;45303;-67
2021/12/07 11:14:52;;;;;;;;;25.00;19.33;;;;;;;;5064910;28;45473;-67
2021/12/07 11:17:22;;;;;;;;;26.00;24.00;;;;;;;;5074328;28;45345;-68
2021/12/07 11:19:47;;;;;;;;;31.00;23.33;;;;;;;;5082483;28;45495;-67
2021/12/07 11:22:13;;;;;;;;;28.33;22.67;;;;;;;;5065991;28;45381;-68
2021/12/07 11:24:40;;;;;;;;;27.33;22.33;;;;;;;;5081264;28;45300;-65
2021/12/07 11:29:57;;;;;;;;;22.67;20.00;;;;;;;;5069643;28;45781;-66
2021/12/07 11:32:22;;;;;;;;;21.33;15.33;;;;;;;;5052975;28;45385;-67
2021/12/07 11:34:48;;;;;;;;;19.67;16.00;;;;;;;;5064235;28;45391;-67
2021/12/07 11:37:13;;;;;;;;;22.33;17.33;;;;;;;;5054948;28;45432;-67
2021/12/07 11:39:47;;;;;;;;;15.33;13.67;;;;;;;;5082429;28;45445;-67
2021/12/07 11:42:15;;;;;;;;;11.67;8.00;;;;;;;;5056626;28;45870;-67
2021/12/07 11:44:50;;;;;;;;;24.67;18.00;;;;;;;;5072981;28;45422;-67
2021/12/07 11:47:15;;;;;;;;;11.67;9.67;;;;;;;;5062676;28;45682;-67
2021/12/07 11:49:40;;;;;;;;;12.00;8.00;;;;;;;;5076350;28;45582;-67
2021/12/07 11:52:08;;;;;;;;;10.33;10.00;;;;;;;;5074798;28;45580;-67
2021/12/07 11:54:35;;;;;;;;;15.33;10.67;;;;;;;;5066708;28;45347;-67
2021/12/07 11:57:02;;;;;;;;;17.67;15.33;;;;;;;;5071340;28;46088;-66
2021/12/07 11:59:28;;;;;;;;;5.00;2.00;;;;;;;;5068746;28;48229;-66
2021/12/07 12:01:53;;;;;;;;;12.00;10.33;;;;;;;;5068355;28;45338;-67
2021/12/07 12:04:19;;;;;;;;;15.33;14.00;;;;;;;;5075948;28;45762;-67
2021/12/07 12:06:49;;;;;;;;;11.67;8.00;;;;;;;;5066954;28;45417;-66
2021/12/07 12:09:15;;;;;;;;;17.33;15.67;;;;;;;;5059199;28;47217;-66
2021/12/07 12:11:59;;;;;;;;;13.33;11.00;;;;;;;;5078733;28;45393;-66
2021/12/07 12:14:43;;;;;;;;;13.67;9.67;;;;;;;;5078884;28;45471;-67
2021/12/07 12:17:27;;;;;;;;;18.00;12.67;;;;;;;;5065712;28;45714;-67
2021/12/07 12:19:56;;;;;;;;;13.33;8.00;;;;;;;;5083323;28;45298;-67
2021/12/07 12:22:30;;;;;;;;;9.67;7.33;;;;;;;;5067921;28;45309;-68
2021/12/07 12:24:58;;;;;;;;;8.00;6.33;;;;;;;;5065983;28;45483;-68
2021/12/07 12:27:27;;;;;;;;;12.67;9.00;;;;;;;;5068398;28;45341;-68
2021/12/07 12:29:54;;;;;;;;;12.67;9.00;;;;;;;;5053132;28;46232;-68
2021/12/07 12:32:26;;;;;;;;;10.67;8.33;;;;;;;;5054749;28;46070;-67
2021/12/07 12:34:51;;;;;;;;;11.33;7.67;;;;;;;;5085490;28;45381;-67
2021/12/07 12:37:18;;;;;;;;;7.67;7.67;;;;;;;;5070318;28;45601;-67
2021/12/07 12:39:46;;;;;;;;;9.00;9.00;;;;;;;;5085611;28;45768;-67
2021/12/07 12:42:23;;;;;;;;;6.00;6.00;;;;;;;;5067066;28;45425;-68
2021/12/07 12:44:55;;;;;;;;;11.67;8.67;;;;;;;;5075042;28;45574;-67
2021/12/07 12:47:24;;;;;;;;;14.00;7.67;;;;;;;;5050572;28;45403;-67
2021/12/07 12:49:49;;;;;;;;;9.33;7.00;;;;;;;;5076269;28;46713;-67
2021/12/07 12:52:14;;;;;;;;;8.67;4.67;;;;;;;;5074696;28;45227;-67
2021/12/07 12:54:41;;;;;;;;;7.67;6.00;;;;;;;;5065167;28;45477;-66
2021/12/07 12:57:07;;;;;;;;;5.00;4.67;;;;;;;;5071838;28;45544;-66
2021/12/07 12:59:35;;;;;;;;;7.67;6.00;;;;;;;;5074888;28;46335;-67
2021/12/07 13:02:01;;;;;;;;;5.33;5.33;;;;;;;;5065294;28;45349;-67
2021/12/07 13:04:28;;;;;;;;;8.33;7.00;;;;;;;;5056575;28;45431;-67
2021/12/07 13:07:02;;;;;;;;;4.00;4.00;;;;;;;;5060601;28;45604;-67
2021/12/07 13:09:30;;;;;;;;;3.67;3.33;;;;;;;;5058392;28;48393;-66
2021/12/07 13:12:12;;;;;;;;;3.33;3.33;;;;;;;;5078724;28;45448;-66
2021/12/07 13:14:38;;;;;;;;;9.33;6.00;;;;;;;;5079395;28;45484;-67
2021/12/07 13:17:22;;;;;;;;;8.00;5.33;;;;;;;;5078423;28;45425;-68
2021/12/07 13:19:59;;;;;;;;;12.33;8.00;;;;;;;;5081750;28;45398;-67
2021/12/07 13:22:24;;;;;;;;;6.00;5.00;;;;;;;;5062455;28;45718;-67
2021/12/07 13:24:56;;;;;;;;;9.00;7.33;;;;;;;;5082983;28;45456;-67
2021/12/07 13:27:22;;;;;;;;;6.67;6.00;;;;;;;;5068087;28;45470;-66
2021/12/07 13:29:52;;;;;;;;;9.67;7.00;;;;;;;;5083565;28;45384;-67
2021/12/07 13:32:18;;;;;;;;;10.67;5.33;;;;;;;;5069252;28;45256;-66
2021/12/07 13:34:43;;;;;;;;;4.67;4.00;;;;;;;;5084084;28;45177;-67
2021/12/07 13:37:12;;;;;;;;;6.67;5.33;;;;;;;;5071694;28;45302;-67
2021/12/07 13:40:04;;;;;;;;;5.33;4.00;;;;;;;;5071013;28;45346;-67
2021/12/07 13:42:29;;;;;;;;;7.33;5.00;;;;;;;;5060067;28;45316;-67
2021/12/07 13:44:57;;;;;;;;;12.00;10.33;;;;;;;;5079680;28;45414;-67
2021/12/07 13:47:24;;;;;;;;;6.67;6.67;;;;;;;;5067693;28;45382;-67
2021/12/07 13:49:54;;;;;;;;;11.00;7.00;;;;;;;;5074562;28;45334;-67
2021/12/07 13:52:25;;;;;;;;;6.00;3.00;;;;;;;;5060479;28;46261;-67
2021/12/07 13:54:52;;;;;;;;;8.00;8.00;;;;;;;;5045725;28;45409;-67
2021/12/07 13:57:19;;;;;;;;;4.00;4.00;;;;;;;;5061701;28;45346;-67
2021/12/07 13:59:54;;;;;;;;;3.33;3.33;;;;;;;;5076342;28;45237;-67
2021/12/07 14:02:21;;;;;;;;;6.00;5.33;;;;;;;;5074263;28;45185;-67
2021/12/07 14:04:47;;;;;;;;;9.33;5.33;;;;;;;;5059391;28;45313;-67
2021/12/07 14:07:15;;;;;;;;;7.67;6.00;;;;;;;;5062930;28;45297;-67
2021/12/07 14:09:40;;;;;;;;;8.00;6.00;;;;;;;;5077613;28;45273;-67
2021/12/07 14:12:05;;;;;;;;;7.33;6.33;;;;;;;;5076453;28;45431;-67
2021/12/07 14:14:31;;;;;;;;;6.00;3.33;;;;;;;;5059631;28;45275;-67
2021/12/07 14:16:57;;;;;;;;;9.67;6.33;;;;;;;;5077455;28;45252;-67
2021/12/07 14:19:23;;;;;;;;;4.00;4.00;;;;;;;;5081899;28;45441;-67
2021/12/07 14:21:49;;;;;;;;;6.00;4.00;;;;;;;;5070698;28;45404;-67
2021/12/07 14:24:18;;;;;;;;;9.33;6.67;;;;;;;;5058939;28;45196;-67
2021/12/07 14:26:43;;;;;;;;;7.33;4.67;;;;;;;;5059001;28;45471;-67
2021/12/07 14:29:13;;;;;;;;;6.00;6.00;;;;;;;;5077964;28;46388;-67
2021/12/07 14:31:43;;;;;;;;;9.67;5.67;;;;;;;;5059349;28;45381;-67
2021/12/07 14:34:12;;;;;;;;;7.00;4.00;;;;;;;;5078806;28;45705;-67
2021/12/07 14:36:39;;;;;;;;;8.00;8.00;;;;;;;;5057030;28;45463;-67
2021/12/07 14:39:05;;;;;;;;;9.67;8.33;;;;;;;;5064929;28;47343;-67
2021/12/07 14:41:31;;;;;;;;;8.00;5.00;;;;;;;;5072459;28;45586;-67
2021/12/07 14:43:57;;;;;;;;;7.67;6.67;;;;;;;;5066687;28;45476;-67
2021/12/07 14:46:23;;;;;;;;;14.00;5.33;;;;;;;;5055946;28;45534;-67
2021/12/07 14:48:49;;;;;;;;;8.67;5.33;;;;;;;;5066996;28;45474;-68
2021/12/07 14:51:14;;;;;;;;;7.67;4.00;;;;;;;;5075145;28;45410;-67
2021/12/07 14:53:47;;;;;;;;;7.67;5.67;;;;;;;;5071287;28;45298;-67
2021/12/07 14:56:13;;;;;;;;;7.00;5.33;;;;;;;;5075686;28;45364;-67
2021/12/07 14:58:39;;;;;;;;;3.00;3.00;;;;;;;;5072875;28;45417;-67
2021/12/07 15:01:06;;;;;;;;;9.67;7.00;;;;;;;;5060651;28;45746;-67
2021/12/07 15:03:33;;;;;;;;;10.00;7.67;;;;;;;;5055688;28;45317;-67
2021/12/07 15:05:58;;;;;;;;;6.00;6.00;;;;;;;;5080501;28;45250;-67
2021/12/07 15:08:23;;;;;;;;;7.67;4.00;;;;;;;;5061755;28;47562;-67
2021/12/07 15:10:48;;;;;;;;;8.67;5.33;;;;;;;;5061304;28;45445;-67
2021/12/07 15:13:13;;;;;;;;;8.33;3.00;;;;;;;;5080687;28;45573;-68
2021/12/07 15:15:39;;;;;;;;;2.00;2.00;;;;;;;;5061983;28;45478;-67
2021/12/07 15:18:10;;;;;;;;;1.00;1.00;;;;;;;;5080805;28;46516;-67
2021/12/07 15:20:36;;;;;;;;;5.33;4.00;;;;;;;;5079152;28;45473;-67
2021/12/07 15:23:01;;;;;;;;;7.33;6.00;;;;;;;;5050891;28;45364;-67
2021/12/07 15:25:26;;;;;;;;;6.00;4.00;;;;;;;;5081422;28;45542;-68
2021/12/07 15:27:52;;;;;;;;;9.00;7.00;;;;;;;;5077253;28;45466;-68
2021/12/07 15:30:18;;;;;;;;;9.00;7.00;;;;;;;;5080193;27;45353;-67
2021/12/07 15:32:43;;;;;;;;;4.67;3.67;;;;;;;;5070655;28;45428;-67
2021/12/07 15:35:08;;;;;;;;;2.00;1.00;;;;;;;;5063294;28;45508;-69
2021/12/07 15:37:33;;;;;;;;;10.00;7.00;;;;;;;;5053739;28;48024;-68
2021/12/07 15:40:00;;;;;;;;;7.33;5.33;;;;;;;;5081437;28;45333;-67
2021/12/07 15:42:27;;;;;;;;;8.33;7.00;;;;;;;;5064182;28;45322;-68
2021/12/07 15:44:58;;;;;;;;;11.33;7.33;;;;;;;;5072346;28;45491;-69
2021/12/07 15:47:25;;;;;;;;;6.33;6.00;;;;;;;;5055155;28;47299;-67
2021/12/07 15:49:59;;;;;;;;;5.33;4.00;;;;;;;;5064126;28;45429;-68
2021/12/07 15:52:30;;;;;;;;;4.00;4.00;;;;;;;;5053998;28;45362;-67
2021/12/07 15:54:57;;;;;;;;;5.00;2.00;;;;;;;;5044059;28;45238;-67
2021/12/07 15:57:23;;;;;;;;;6.67;5.33;;;;;;;;5072904;28;45669;-68
2021/12/07 15:59:57;;;;;;;;;3.33;3.33;;;;;;;;5075405;28;45311;-68
2021/12/07 16:02:22;;;;;;;;;3.33;3.33;;;;;;;;5073277;28;45311;-68
2021/12/07 16:04:48;;;;;;;;;5.33;4.67;;;;;;;;5076341;28;45438;-67
2021/12/07 16:07:22;;;;;;;;;5.33;3.00;;;;;;;;5074031;28;45465;-67
2021/12/07 16:10:04;;;;;;;;;25.00;15.67;;;;;;;;5058953;28;45393;-67